Time;durP1;ratioP1;P1;durP2;ratioP2;P2;SDS_P1;SDS_P2;PMS_P1;PMS_P2;Temp;Humidity;BMP_temperature;BMP_pressure;BME280_temperature;BME280_humidity;BME280_pressure;Samples;Min_cycle;Max_cycle;Signal;HPM_P1;HPM_P2
2022/05/12 00:00:26;;;;;;;8.43;4.97;;;21.90;66.20;;;;;;5065105;28;20448;-77
2022/05/12 00:02:55;;;;;;;9.20;4.90;;;21.80;66.50;;;;;;5066645;28;21016;-77
2022/05/12 00:05:24;;;;;;;10.60;4.43;;;21.80;66.60;;;;;;5065382;28;20485;-77
2022/05/12 00:07:53;;;;;;;7.20;4.10;;;21.70;66.70;;;;;;5068357;28;20858;-78
2022/05/12 00:10:25;;;;;;;6.70;4.33;;;21.70;66.90;;;;;;5065452;28;20886;-78
2022/05/12 00:12:54;;;;;;;7.23;4.60;;;21.60;67.10;;;;;;5063053;28;20475;-75
2022/05/12 00:15:24;;;;;;;9.00;5.00;;;21.60;67.40;;;;;;5060491;28;20458;-77
2022/05/12 00:17:53;;;;;;;8.93;4.80;;;21.60;67.50;;;;;;5067656;28;20462;-77
2022/05/12 00:20:24;;;;;;;8.77;4.90;;;21.60;67.60;;;;;;5066504;28;20462;-76
2022/05/12 00:22:52;;;;;;;7.27;4.43;;;21.50;67.90;;;;;;5067538;28;20488;-77
2022/05/12 00:25:23;;;;;;;8.23;4.20;;;21.40;68.00;;;;;;5066353;28;20482;-76
2022/05/12 00:27:51;;;;;;;8.77;4.53;;;21.40;68.20;;;;;;5058884;28;20474;-76
2022/05/12 00:30:19;;;;;;;6.20;3.50;;;21.30;68.30;;;;;;5063696;28;20537;-77
2022/05/12 00:32:48;;;;;;;7.00;4.13;;;21.30;68.40;;;;;;5065969;28;20482;-75
2022/05/12 00:35:17;;;;;;;8.00;4.10;;;21.20;68.70;;;;;;5067367;28;20514;-75
2022/05/12 00:37:47;;;;;;;8.53;4.80;;;21.20;68.70;;;;;;5070526;28;20800;-75
2022/05/12 00:40:16;;;;;;;7.90;4.50;;;21.20;68.80;;;;;;5063283;28;20468;-77
2022/05/12 00:42:56;;;;;;;7.03;4.50;;;21.20;69.00;;;;;;5061937;28;20532;-78
2022/05/12 00:45:25;;;;;;;6.83;4.60;;;21.10;69.10;;;;;;5064847;28;20459;-76
2022/05/12 00:47:53;;;;;;;7.03;4.37;;;21.00;69.40;;;;;;5066051;28;20847;-77
2022/05/12 00:50:26;;;;;;;7.80;4.27;;;20.90;69.40;;;;;;5066030;28;20904;-77
2022/05/12 00:52:57;;;;;;;8.23;4.83;;;20.90;69.50;;;;;;5080249;28;20571;-76
2022/05/12 00:55:32;;;;;;;8.23;4.80;;;20.80;69.70;;;;;;5062838;28;20461;-78
2022/05/12 00:58:03;;;;;;;6.57;4.20;;;20.80;69.80;;;;;;5060007;28;21445;-77
2022/05/12 01:00:31;;;;;;;11.33;4.60;;;20.80;69.90;;;;;;5058683;28;20469;-77
2022/05/12 01:03:04;;;;;;;8.20;4.43;;;20.80;70.00;;;;;;5063952;28;20484;-77
2022/05/12 01:05:32;;;;;;;7.07;4.07;;;20.80;70.20;;;;;;5066382;28;20462;-76
2022/05/12 01:08:02;;;;;;;7.57;4.67;;;20.80;70.30;;;;;;5066866;28;20482;-76
2022/05/12 01:10:31;;;;;;;8.10;4.63;;;20.80;70.40;;;;;;5064035;28;20546;-76
2022/05/12 01:12:59;;;;;;;6.70;4.20;;;20.80;70.30;;;;;;5063611;28;20487;-76
2022/05/12 01:15:28;;;;;;;6.93;3.97;;;20.80;70.30;;;;;;5060599;28;20629;-76
2022/05/12 01:18:04;;;;;;;7.00;4.47;;;20.80;70.30;;;;;;5066546;28;20488;-77
2022/05/12 01:20:33;;;;;;;7.33;4.80;;;20.80;70.50;;;;;;5066055;28;21005;-76
2022/05/12 01:23:06;;;;;;;8.60;3.90;;;20.80;70.40;;;;;;5066378;28;20476;-76
2022/05/12 01:25:35;;;;;;;6.90;4.40;;;20.80;70.40;;;;;;5065281;28;20536;-77
2022/05/12 01:28:04;;;;;;;9.67;4.70;;;20.80;70.50;;;;;;5064851;28;20467;-77
2022/05/12 01:30:32;;;;;;;10.17;4.43;;;20.80;70.40;;;;;;5056248;28;20469;-76
2022/05/12 01:33:00;;;;;;;9.63;4.80;;;20.80;70.40;;;;;;5063336;28;20481;-76
2022/05/12 01:35:28;;;;;;;7.90;4.17;;;20.80;70.40;;;;;;5066272;28;20455;-77
2022/05/12 01:37:56;;;;;;;8.00;5.20;;;20.80;70.40;;;;;;5065372;28;20452;-76
2022/05/12 01:40:25;;;;;;;8.20;4.10;;;20.80;70.40;;;;;;5065090;28;20447;-77
2022/05/12 01:42:55;;;;;;;9.47;4.53;;;20.80;70.40;;;;;;5064750;28;21011;-77
2022/05/12 01:45:23;;;;;;;8.23;4.23;;;20.80;70.20;;;;;;5063548;28;20482;-77
2022/05/12 01:47:52;;;;;;;9.43;4.10;;;20.80;70.20;;;;;;5064492;28;20512;-77
2022/05/12 01:50:21;;;;;;;7.40;4.43;;;20.80;70.20;;;;;;5067026;28;20453;-77
2022/05/12 01:52:50;;;;;;;6.40;3.80;;;20.80;70.10;;;;;;5065745;28;20831;-77
2022/05/12 01:55:20;;;;;;;6.27;3.67;;;20.80;70.10;;;;;;5066422;28;20449;-76
2022/05/12 01:57:49;;;;;;;6.20;4.13;;;20.80;70.10;;;;;;5066948;28;20480;-76
2022/05/12 02:00:21;;;;;;;7.03;3.77;;;20.70;70.00;;;;;;5065860;28;20455;-77
2022/05/12 02:02:50;;;;;;;6.07;3.87;;;20.70;70.00;;;;;;5064962;28;20488;-77
2022/05/12 02:05:19;;;;;;;8.10;4.47;;;20.70;70.00;;;;;;5079216;28;20478;-77
2022/05/12 02:07:48;;;;;;;8.70;4.50;;;20.70;70.00;;;;;;5066282;28;20602;-76
2022/05/12 02:10:19;;;;;;;7.50;4.40;;;20.60;69.90;;;;;;5061017;28;20519;-77
2022/05/12 02:12:47;;;;;;;7.13;4.47;;;20.60;70.00;;;;;;5064415;28;20971;-76
2022/05/12 02:15:16;;;;;;;7.53;4.73;;;20.50;70.10;;;;;;5065263;28;20458;-76
2022/05/12 02:17:45;;;;;;;6.87;4.03;;;20.50;70.20;;;;;;5062359;28;20463;-76
2022/05/12 02:20:14;;;;;;;6.63;4.27;;;20.40;70.00;;;;;;5063989;28;20466;-76
2022/05/12 02:22:42;;;;;;;8.30;4.57;;;20.30;70.20;;;;;;5066364;28;20518;-76
2022/05/12 02:25:11;;;;;;;8.30;4.00;;;20.30;70.30;;;;;;5064451;28;20459;-76
2022/05/12 02:27:45;;;;;;;9.40;5.00;;;20.30;70.40;;;;;;5064237;28;20470;-77
2022/05/12 02:30:16;;;;;;;7.33;4.27;;;20.20;70.40;;;;;;5065093;28;20459;-77
2022/05/12 02:32:45;;;;;;;8.43;3.73;;;20.10;70.40;;;;;;5064799;28;21196;-76
2022/05/12 02:35:14;;;;;;;7.03;4.00;;;20.00;70.40;;;;;;5062941;28;20568;-76
2022/05/12 02:37:42;;;;;;;6.80;4.37;;;20.00;70.50;;;;;;5079804;28;20454;-77
2022/05/12 02:40:12;;;;;;;8.60;4.60;;;20.00;70.60;;;;;;5065387;28;20474;-77
2022/05/12 02:42:41;;;;;;;8.07;4.37;;;20.00;70.60;;;;;;5064007;28;20490;-76
2022/05/12 02:45:10;;;;;;;7.20;4.50;;;19.90;70.70;;;;;;5066221;28;20455;-76
2022/05/12 02:47:39;;;;;;;7.40;4.67;;;19.90;70.70;;;;;;5065143;28;20962;-79
2022/05/12 02:50:10;;;;;;;6.40;3.77;;;19.80;70.60;;;;;;5064352;28;20812;-77
2022/05/12 02:52:38;;;;;;;6.13;3.53;;;19.70;70.70;;;;;;5063065;28;20498;-75
2022/05/12 02:55:07;;;;;;;6.93;3.60;;;19.70;70.70;;;;;;5063790;28;20462;-76
2022/05/12 02:57:36;;;;;;;7.20;3.70;;;19.60;70.80;;;;;;5065891;28;20454;-75
2022/05/12 03:00:05;;;;;;;5.83;3.60;;;19.60;70.80;;;;;;5063610;28;20454;-75
2022/05/12 03:02:33;;;;;;;6.70;4.43;;;19.50;70.90;;;;;;5065785;28;20520;-76
2022/05/12 03:05:01;;;;;;;7.67;4.20;;;19.50;70.90;;;;;;5067958;28;20468;-77
2022/05/12 03:07:31;;;;;;;7.03;3.80;;;19.50;71.10;;;;;;5058277;28;20997;-76
2022/05/12 03:09:59;;;;;;;7.50;3.87;;;19.50;71.10;;;;;;5063364;28;20461;-76
2022/05/12 03:12:27;;;;;;;8.87;4.40;;;19.40;71.10;;;;;;5063174;28;20530;-77
2022/05/12 03:14:55;;;;;;;5.67;3.47;;;19.30;71.10;;;;;;5066639;28;20459;-77
2022/05/12 03:17:23;;;;;;;6.80;3.20;;;19.30;71.30;;;;;;5063293;28;20470;-77
2022/05/12 03:19:51;;;;;;;8.93;3.57;;;19.30;71.30;;;;;;5068671;28;20830;-76
2022/05/12 03:22:19;;;;;;;7.83;4.03;;;19.30;71.30;;;;;;5067910;28;20531;-77
2022/05/12 03:24:48;;;;;;;6.30;3.70;;;19.30;71.40;;;;;;5061713;28;20814;-77
2022/05/12 03:27:17;;;;;;;5.70;3.10;;;19.40;71.40;;;;;;5068160;28;20514;-76
2022/05/12 03:29:45;;;;;;;7.47;3.90;;;19.40;71.30;;;;;;5065960;28;20473;-77
2022/05/12 03:32:13;;;;;;;5.87;2.73;;;19.40;71.30;;;;;;5066233;28;20490;-76
2022/05/12 03:34:41;;;;;;;8.17;3.67;;;19.40;71.10;;;;;;5068240;28;20461;-77
2022/05/12 03:37:10;;;;;;;6.60;3.60;;;19.40;71.10;;;;;;5068096;28;20469;-77
2022/05/12 03:39:44;;;;;;;5.83;3.10;;;19.40;71.00;;;;;;5064329;28;20498;-76
2022/05/12 03:42:15;;;;;;;5.87;3.40;;;19.50;71.00;;;;;;5064937;28;21009;-78
2022/05/12 03:44:54;;;;;;;5.67;3.00;;;19.50;71.00;;;;;;5067157;28;20507;-76
2022/05/12 03:47:24;;;;;;;8.20;3.00;;;19.50;70.80;;;;;;5065106;28;20835;-74
2022/05/12 03:49:54;;;;;;;5.83;3.53;;;19.50;70.70;;;;;;5066096;28;20466;-77
2022/05/12 03:52:23;;;;;;;6.43;2.90;;;19.50;70.70;;;;;;5064937;28;20501;-77
2022/05/12 03:54:52;;;;;;;7.37;4.00;;;19.50;70.70;;;;;;5067885;28;20951;-77
2022/05/12 03:57:26;;;;;;;7.90;3.40;;;19.50;70.50;;;;;;5072249;28;20455;-79
2022/05/12 03:59:55;;;;;;;7.93;3.43;;;19.50;70.40;;;;;;5067616;28;20453;-76
2022/05/12 04:02:24;;;;;;;5.83;3.37;;;19.50;70.40;;;;;;5066774;28;20470;-75
2022/05/12 04:04:52;;;;;;;6.50;3.20;;;19.60;70.40;;;;;;5068656;28;20846;-78
2022/05/12 04:07:22;;;;;;;6.13;2.77;;;19.50;70.30;;;;;;5065572;28;21077;-78
2022/05/12 04:09:51;;;;;;;5.57;2.83;;;19.50;70.20;;;;;;5057807;28;20454;-76
2022/05/12 04:12:20;;;;;;;5.70;3.20;;;19.50;70.20;;;;;;5066596;28;20483;-75
2022/05/12 04:14:48;;;;;;;5.40;2.97;;;19.50;70.20;;;;;;5081653;28;20485;-75
2022/05/12 04:17:16;;;;;;;6.33;3.20;;;19.50;70.10;;;;;;5068278;28;20477;-74
2022/05/12 04:19:45;;;;;;;4.80;2.60;;;19.60;70.10;;;;;;5068716;28;20450;-77
2022/05/12 04:22:14;;;;;;;5.53;2.53;;;19.60;70.10;;;;;;5068000;28;20845;-78
2022/05/12 04:24:42;;;;;;;6.17;2.60;;;19.60;70.00;;;;;;5066642;28;20949;-75
2022/05/12 04:27:11;;;;;;;6.37;3.20;;;19.70;70.00;;;;;;5066749;28;20954;-76
2022/05/12 04:29:43;;;;;;;6.47;2.93;;;19.70;70.00;;;;;;5066131;28;20472;-76
2022/05/12 04:32:12;;;;;;;7.70;2.40;;;19.80;70.00;;;;;;5067678;28;20570;-76
2022/05/12 04:37:44;;;;;;;5.40;2.50;;;19.90;69.80;;;;;;4999967;28;20555;-76
2022/05/12 04:40:15;;;;;;;6.00;2.43;;;20.00;69.80;;;;;;5021728;28;20456;-76
2022/05/12 04:42:43;;;;;;;5.90;2.17;;;20.10;69.80;;;;;;5046311;28;20485;-76
2022/05/12 04:45:14;;;;;;;5.10;2.30;;;20.20;69.70;;;;;;5065024;28;20525;-76
2022/05/12 04:47:43;;;;;;;4.75;2.25;;;20.40;69.60;;;;;;5083069;28;20495;-76
2022/05/12 04:50:15;;;;;;;4.47;2.13;;;20.50;69.50;;;;;;5067601;28;20447;-76
2022/05/12 04:52:43;;;;;;;5.27;1.97;;;20.70;69.40;;;;;;5067239;28;21251;-76
2022/05/12 04:55:11;;;;;;;5.07;2.47;;;20.80;69.10;;;;;;5063915;28;20989;-75
2022/05/12 04:57:49;;;;;;;11.47;3.10;;;20.90;68.90;;;;;;5065654;28;20471;-75
2022/05/12 05:00:22;;;;;;;5.50;2.07;;;21.00;68.70;;;;;;5065451;28;20463;-75
2022/05/12 05:02:50;;;;;;;5.60;2.10;;;21.20;68.70;;;;;;5066649;28;20484;-75
2022/05/12 05:05:19;;;;;;;4.33;2.17;;;21.30;68.50;;;;;;5069200;28;20484;-75
2022/05/12 05:07:47;;;;;;;4.50;2.10;;;21.50;68.30;;;;;;5068872;28;20464;-75
2022/05/12 05:10:15;;;;;;;4.93;2.57;;;21.60;68.40;;;;;;5065747;28;21229;-75
2022/05/12 05:12:43;;;;;;;4.90;1.77;;;21.80;68.70;;;;;;5064374;28;21034;-75
2022/05/12 05:15:14;;;;;;;4.30;2.00;;;22.10;68.80;;;;;;5065708;28;20453;-75
2022/05/12 05:17:45;;;;;;;5.40;2.07;;;22.50;68.00;;;;;;5067045;28;21100;-75
2022/05/12 05:20:17;;;;;;;4.03;2.10;;;22.90;66.80;;;;;;5063570;28;20446;-74
2022/05/12 05:22:46;;;;;;;5.03;2.00;;;23.10;65.90;;;;;;5066616;28;20487;-74
2022/05/12 05:25:15;;;;;;;4.87;1.93;;;23.40;65.30;;;;;;5063030;28;20471;-74
2022/05/12 05:27:43;;;;;;;4.93;2.20;;;23.40;64.10;;;;;;5064870;28;20470;-77
2022/05/12 05:30:18;;;;;;;4.40;1.93;;;23.20;63.70;;;;;;5064281;28;20478;-75
2022/05/12 05:32:48;;;;;;;5.00;2.03;;;22.80;63.70;;;;;;5064426;28;20856;-74
2022/05/12 05:35:16;;;;;;;4.70;2.10;;;22.60;64.20;;;;;;5063503;28;20457;-76
2022/05/12 05:37:46;;;;;;;4.57;2.07;;;22.50;64.40;;;;;;5062959;28;20497;-76
2022/05/12 05:40:17;;;;;;;4.57;2.07;;;22.20;64.40;;;;;;5063464;28;20491;-76
2022/05/12 05:42:46;;;;;;;4.63;2.23;;;22.00;64.60;;;;;;5078929;28;20545;-75
2022/05/12 05:45:17;;;;;;;5.20;2.27;;;21.80;64.80;;;;;;5064757;28;20510;-75
2022/05/12 05:47:48;;;;;;;6.13;1.70;;;21.70;65.10;;;;;;5065746;28;20457;-75
2022/05/12 05:50:19;;;;;;;4.40;1.97;;;21.60;65.40;;;;;;5066768;28;20470;-75
2022/05/12 05:55:33;;;;;;;5.70;2.47;;;21.40;65.60;;;;;;5063985;28;20460;-75
2022/05/12 05:58:02;;;;;;;4.17;2.07;;;21.30;65.90;;;;;;5064325;28;20461;-75
2022/05/12 06:00:32;;;;;;;6.60;2.20;;;21.20;66.10;;;;;;5063688;28;20594;-75
2022/05/12 06:03:02;;;;;;;4.60;2.13;;;21.20;66.20;;;;;;5075890;28;20485;-75
2022/05/12 06:05:31;;;;;;;6.97;2.20;;;21.10;66.40;;;;;;5058965;28;20452;-75
2022/05/12 06:07:59;;;;;;;4.90;2.13;;;21.10;66.50;;;;;;5063749;28;20466;-75
2022/05/12 06:10:28;;;;;;;5.27;2.30;;;21.10;66.60;;;;;;5062763;28;20544;-75
2022/05/12 06:12:56;;;;;;;4.50;2.00;;;21.10;66.70;;;;;;5064751;28;20525;-75
2022/05/12 06:15:25;;;;;;;6.13;2.30;;;21.10;66.80;;;;;;5062858;28;20811;-75
2022/05/12 06:17:53;;;;;;;4.90;2.03;;;21.00;66.90;;;;;;5064135;28;20899;-76
2022/05/12 06:20:24;;;;;;;11.20;2.80;;;21.00;67.00;;;;;;5066061;28;21056;-75
2022/05/12 06:22:52;;;;;;;7.60;2.50;;;21.00;67.10;;;;;;5062584;28;20474;-75
2022/05/12 06:25:20;;;;;;;6.00;2.77;;;21.00;67.10;;;;;;5071038;28;20982;-75
2022/05/12 06:27:48;;;;;;;5.73;2.00;;;20.90;67.20;;;;;;5061549;28;20463;-75
2022/05/12 06:30:16;;;;;;;7.47;3.00;;;20.90;67.30;;;;;;5058900;28;20468;-75
2022/05/12 06:32:46;;;;;;;5.70;2.10;;;20.90;67.50;;;;;;5066180;28;20478;-75
2022/05/12 06:35:17;;;;;;;4.10;2.00;;;20.90;67.70;;;;;;5065317;28;20503;-75
2022/05/12 06:37:46;;;;;;;4.30;1.90;;;20.90;67.70;;;;;;5066539;28;20672;-75
2022/05/12 06:40:14;;;;;;;4.40;1.90;;;20.90;67.80;;;;;;5070355;28;21251;-74
2022/05/12 06:42:50;;;;;;;5.07;2.50;;;20.90;67.80;;;;;;5066331;28;20574;-73
2022/05/12 06:45:21;;;;;;;10.60;2.20;;;20.90;67.80;;;;;;5068411;28;20815;-75
2022/05/12 06:47:51;;;;;;;4.53;2.23;;;21.00;67.90;;;;;;5070451;28;20471;-75
2022/05/12 06:50:21;;;;;;;6.80;2.70;;;21.00;68.00;;;;;;5069538;28;20514;-74
2022/05/12 06:52:52;;;;;;;4.70;2.33;;;21.00;67.90;;;;;;5070573;28;20475;-74
2022/05/12 06:55:20;;;;;;;4.30;2.20;;;21.00;67.90;;;;;;5068551;28;20463;-74
2022/05/12 06:57:48;;;;;;;5.97;2.37;;;21.00;68.00;;;;;;5062585;28;20476;-75
2022/05/12 07:00:17;;;;;;;4.90;2.27;;;21.10;68.20;;;;;;5055879;28;20459;-75
2022/05/12 07:02:46;;;;;;;4.60;1.90;;;21.10;68.10;;;;;;5068747;28;20480;-74
2022/05/12 07:05:15;;;;;;;5.23;2.37;;;21.10;68.10;;;;;;5068823;28;20462;-74
2022/05/12 07:07:43;;;;;;;11.70;2.47;;;21.10;68.10;;;;;;5069809;28;20463;-74
2022/05/12 07:10:14;;;;;;;7.10;2.40;;;21.10;68.00;;;;;;5069705;28;20484;-76
2022/05/12 07:12:43;;;;;;;6.47;2.73;;;21.10;67.90;;;;;;5069261;28;20566;-74
2022/05/12 07:15:13;;;;;;;5.10;2.20;;;21.10;67.90;;;;;;5067213;28;20468;-74
2022/05/12 07:17:43;;;;;;;4.77;1.90;;;21.10;68.00;;;;;;5064408;28;21255;-75
2022/05/12 07:28:34;;;;;;;4.77;2.03;;;21.20;68.30;;;;;;5069318;28;20451;-74
2022/05/12 07:31:02;;;;;;;5.43;2.10;;;21.20;68.20;;;;;;5066967;28;20566;-74
2022/05/12 07:33:37;;;;;;;7.50;2.10;;;21.30;68.20;;;;;;5067740;28;20592;-74
2022/05/12 07:36:09;;;;;;;6.73;2.37;;;21.30;68.20;;;;;;5071817;28;20992;-74
2022/05/12 07:38:38;;;;;;;4.60;1.83;;;21.30;68.10;;;;;;5066895;28;21238;-74
2022/05/12 07:41:10;;;;;;;4.57;2.30;;;21.30;68.00;;;;;;5068258;28;20483;-74
2022/05/12 07:43:38;;;;;;;6.20;1.80;;;21.30;68.00;;;;;;5069131;28;20476;-74
2022/05/12 07:46:07;;;;;;;5.07;2.40;;;21.30;68.00;;;;;;5079517;28;20472;-76
2022/05/12 07:48:35;;;;;;;5.63;1.87;;;21.30;68.10;;;;;;5063694;28;20468;-74
2022/05/12 07:51:03;;;;;;;5.70;1.60;;;21.30;68.10;;;;;;5062880;28;20474;-74
2022/05/12 07:53:32;;;;;;;5.77;1.60;;;21.30;68.00;;;;;;5066383;28;20491;-75
2022/05/12 07:56:00;;;;;;;6.50;1.60;;;21.30;67.90;;;;;;5069098;28;20456;-76
2022/05/12 07:58:29;;;;;;;8.00;1.83;;;21.30;67.90;;;;;;5066450;28;20568;-75
2022/05/12 08:00:57;;;;;;;4.00;1.57;;;21.30;67.60;;;;;;5065118;28;21004;-75
2022/05/12 08:03:26;;;;;;;5.20;1.70;;;21.30;67.40;;;;;;5068013;28;20489;-75
2022/05/12 08:05:55;;;;;;;4.20;1.87;;;21.30;67.30;;;;;;5068359;28;20456;-75
2022/05/12 08:08:23;;;;;;;4.07;1.70;;;21.20;67.30;;;;;;5068778;28;20534;-75
2022/05/12 08:10:50;;;;;;;3.90;1.60;;;21.20;67.30;;;;;;5068306;28;20497;-75
2022/05/12 08:13:19;;;;;;;4.40;1.50;;;21.20;67.40;;;;;;5065679;28;20487;-75
2022/05/12 08:15:51;;;;;;;3.97;1.30;;;21.20;67.40;;;;;;5064305;28;20540;-75
2022/05/12 08:18:21;;;;;;;5.20;1.90;;;21.20;67.40;;;;;;5068806;28;20459;-75
2022/05/12 08:20:49;;;;;;;4.10;1.30;;;21.30;67.40;;;;;;5067259;28;20449;-75
2022/05/12 08:23:18;;;;;;;5.40;1.50;;;21.30;67.40;;;;;;5067639;28;20483;-75
2022/05/12 08:25:47;;;;;;;4.40;1.80;;;21.30;67.40;;;;;;5067598;28;20446;-75
2022/05/12 08:28:17;;;;;;;4.00;1.60;;;21.30;67.40;;;;;;5067797;28;20773;-75
2022/05/12 08:30:46;;;;;;;5.77;1.83;;;21.40;67.50;;;;;;5063540;28;21070;-75
2022/05/12 08:33:15;;;;;;;5.87;1.83;;;21.40;67.50;;;;;;5067633;28;20474;-75
2022/05/12 08:35:44;;;;;;;3.90;1.73;;;21.40;67.50;;;;;;5059678;28;20475;-75
2022/05/12 08:38:13;;;;;;;5.33;2.13;;;21.40;67.40;;;;;;5067472;28;20456;-75
2022/05/12 08:40:49;;;;;;;4.90;2.20;;;21.50;67.40;;;;;;5066925;28;20962;-76
2022/05/12 08:43:19;;;;;;;5.50;1.40;;;21.50;67.60;;;;;;5067944;28;20850;-76
2022/05/12 08:45:50;;;;;;;5.33;1.67;;;21.50;67.40;;;;;;5064919;28;20587;-74
2022/05/12 08:48:21;;;;;;;3.73;1.40;;;21.60;67.30;;;;;;5067065;28;21010;-75
2022/05/12 08:50:54;;;;;;;4.30;1.20;;;21.60;67.50;;;;;;5083670;28;20479;-76
2022/05/12 08:53:27;;;;;;;4.60;1.23;;;21.70;67.20;;;;;;5067510;28;20506;-74
2022/05/12 08:55:57;;;;;;;6.60;1.80;;;21.70;66.70;;;;;;5081459;28;20463;-75
2022/05/12 08:58:33;;;;;;;4.20;1.40;;;21.70;66.60;;;;;;5064647;28;20452;-75
2022/05/12 09:01:04;;;;;;;4.37;1.67;;;21.80;66.30;;;;;;5062742;28;20500;-75
2022/05/12 09:03:47;;;;;;;4.10;1.63;;;21.70;66.30;;;;;;5064897;28;20490;-75
2022/05/12 09:06:20;;;;;;;6.03;1.40;;;21.70;66.10;;;;;;5066149;28;20469;-75
2022/05/12 09:08:56;;;;;;;4.07;1.60;;;21.80;65.90;;;;;;5066315;28;20465;-75
2022/05/12 09:11:29;;;;;;;7.00;2.03;;;21.70;65.70;;;;;;5066657;28;20470;-75
2022/05/12 09:14:00;;;;;;;4.03;1.53;;;21.70;65.60;;;;;;5064961;28;21087;-75
2022/05/12 09:16:31;;;;;;;5.30;1.63;;;21.70;65.60;;;;;;5053514;28;20497;-75
2022/05/12 09:19:01;;;;;;;5.80;1.87;;;21.70;65.60;;;;;;5067010;28;20886;-75
2022/05/12 09:21:32;;;;;;;5.83;1.80;;;21.70;65.70;;;;;;5065594;28;20449;-75
2022/05/12 09:24:00;;;;;;;4.03;1.47;;;21.70;65.80;;;;;;5065098;28;20470;-75
2022/05/12 09:26:36;;;;;;;6.03;1.47;;;21.80;65.80;;;;;;5065308;28;20472;-75
2022/05/12 09:29:23;;;;;;;5.13;1.70;;;21.80;65.70;;;;;;5064404;28;20568;-75
2022/05/12 09:31:54;;;;;;;7.33;1.40;;;21.90;65.50;;;;;;5080258;28;20482;-75
2022/05/12 09:34:29;;;;;;;4.57;1.37;;;21.90;65.50;;;;;;5066519;28;20953;-75
2022/05/12 09:36:59;;;;;;;6.33;1.60;;;21.90;65.30;;;;;;5065977;28;20487;-75
2022/05/12 09:39:36;;;;;;;5.23;1.70;;;21.90;65.10;;;;;;5066618;28;20461;-75
2022/05/12 09:42:08;;;;;;;5.90;1.80;;;22.00;65.00;;;;;;5063125;28;20465;-75
2022/05/12 09:44:36;;;;;;;4.27;1.80;;;22.00;65.00;;;;;;5064313;28;20846;-75
2022/05/12 09:47:10;;;;;;;4.40;1.20;;;22.00;65.00;;;;;;5063553;28;20523;-76
2022/05/12 09:49:43;;;;;;;4.97;1.10;;;22.00;64.80;;;;;;5064201;28;21041;-75
2022/05/12 09:52:32;;;;;;;4.07;1.03;;;22.00;64.70;;;;;;5065718;28;20479;-75
2022/05/12 09:55:13;;;;;;;4.10;1.20;;;22.00;64.20;;;;;;5061450;28;20469;-75
2022/05/12 09:57:51;;;;;;;5.93;1.20;;;21.90;64.30;;;;;;5067262;28;20444;-75
2022/05/12 10:00:32;;;;;;;4.10;1.30;;;21.90;64.10;;;;;;5063156;28;20628;-75
2022/05/12 10:09:04;;;;;;;4.07;1.30;;;21.80;63.90;;;;;;5067206;28;20459;-76
2022/05/12 10:11:36;;;;;;;7.03;1.33;;;21.80;63.50;;;;;;5065836;28;20472;-74
2022/05/12 10:14:06;;;;;;;6.30;1.20;;;21.70;63.40;;;;;;5064781;28;21288;-76
2022/05/12 10:16:35;;;;;;;4.47;1.50;;;21.80;63.30;;;;;;5062191;28;20486;-76
2022/05/12 10:19:06;;;;;;;4.90;1.27;;;21.70;63.20;;;;;;5061107;28;20467;-76
2022/05/12 10:21:42;;;;;;;4.93;1.07;;;21.70;63.30;;;;;;5063668;28;20489;-75
2022/05/12 10:24:19;;;;;;;4.07;1.30;;;21.70;63.10;;;;;;5064297;28;20498;-75
2022/05/12 10:26:51;;;;;;;4.23;0.97;;;21.70;63.20;;;;;;5063186;28;20512;-75
2022/05/12 10:29:34;;;;;;;5.03;1.37;;;21.80;63.20;;;;;;5063595;28;20803;-75
2022/05/12 10:32:10;;;;;;;6.43;1.30;;;21.80;62.90;;;;;;5065233;28;20482;-75
2022/05/12 10:34:51;;;;;;;3.67;1.30;;;21.90;63.10;;;;;;5080387;28;21009;-75
2022/05/12 10:37:36;;;;;;;4.37;1.40;;;21.90;63.00;;;;;;5066402;28;20534;-75
2022/05/12 10:40:19;;;;;;;4.70;1.00;;;22.00;63.00;;;;;;5064851;28;20441;-75
2022/05/12 10:42:57;;;;;;;8.00;1.10;;;22.10;62.80;;;;;;5059414;28;20521;-75
2022/05/12 10:45:29;;;;;;;4.70;1.17;;;22.10;62.50;;;;;;5062405;28;20498;-76
2022/05/12 10:48:21;;;;;;;4.37;1.27;;;22.10;62.50;;;;;;5060393;28;20450;-76
2022/05/12 10:50:57;;;;;;;3.87;1.07;;;22.20;62.40;;;;;;5064783;28;20463;-76
2022/05/12 10:53:36;;;;;;;3.30;0.90;;;22.30;62.30;;;;;;5065402;28;21040;-75
2022/05/12 10:56:18;;;;;;;4.30;1.07;;;22.40;61.90;;;;;;5060701;28;21021;-75
2022/05/12 10:58:52;;;;;;;4.00;0.90;;;22.40;61.70;;;;;;5064150;28;20963;-75
2022/05/12 11:01:23;;;;;;;5.37;1.20;;;22.50;61.90;;;;;;5063871;28;21041;-75
2022/05/12 11:03:58;;;;;;;3.40;1.00;;;22.50;61.50;;;;;;5064134;28;21305;-75
2022/05/12 11:06:32;;;;;;;4.67;1.03;;;22.50;61.50;;;;;;5065890;28;20445;-75
2022/05/12 11:09:07;;;;;;;4.67;1.20;;;22.60;61.10;;;;;;5061889;28;20460;-75
2022/05/12 11:11:39;;;;;;;4.47;1.10;;;22.50;60.90;;;;;;5077969;28;21123;-76
2022/05/12 11:14:12;;;;;;;5.67;1.37;;;22.50;60.80;;;;;;5066077;28;20470;-76
2022/05/12 11:16:46;;;;;;;3.80;1.10;;;22.50;61.00;;;;;;5065174;28;20493;-76
2022/05/12 11:19:18;;;;;;;7.90;1.43;;;22.50;61.00;;;;;;5061945;28;20465;-76
2022/05/12 11:21:56;;;;;;;4.43;1.20;;;22.50;60.90;;;;;;5080242;28;20489;-76
2022/05/12 11:24:44;;;;;;;6.17;1.43;;;22.60;60.80;;;;;;5064869;28;20462;-73
2022/05/12 11:27:38;;;;;;;4.07;1.20;;;22.70;60.90;;;;;;5064861;28;20958;-76
2022/05/12 11:30:23;;;;;;;4.00;1.13;;;22.70;60.60;;;;;;5068667;28;20806;-76
2022/05/12 11:33:02;;;;;;;5.33;1.43;;;22.70;60.60;;;;;;5068765;28;20485;-74
2022/05/12 11:35:34;;;;;;;3.87;1.00;;;22.70;60.80;;;;;;5067389;28;21074;-74
2022/05/12 11:38:04;;;;;;;3.70;1.20;;;22.70;60.80;;;;;;5066684;28;20977;-74
2022/05/12 11:40:51;;;;;;;3.67;1.03;;;22.80;60.70;;;;;;5063614;28;20452;-74
2022/05/12 11:46:41;;;;;;;5.00;1.50;;;22.90;60.60;;;;;;5058890;28;20470;-76
2022/05/12 11:49:27;;;;;;;3.67;1.10;;;22.90;60.30;;;;;;5068080;28;21276;-76
2022/05/12 11:52:07;;;;;;;8.27;1.40;;;22.80;60.20;;;;;;5066645;28;20477;-76
2022/05/12 11:54:39;;;;;;;4.80;1.30;;;22.80;60.30;;;;;;5066233;28;20458;-76
2022/05/12 11:57:23;;;;;;;3.40;0.87;;;22.80;60.10;;;;;;5065915;28;20538;-75
2022/05/12 11:59:52;;;;;;;5.53;1.10;;;22.80;60.00;;;;;;5067610;28;20458;-75
2022/05/12 12:02:41;;;;;;;5.93;1.20;;;22.80;60.20;;;;;;5068005;28;20999;-76
2022/05/12 12:05:11;;;;;;;5.07;1.33;;;22.80;60.00;;;;;;5067191;28;20447;-76
2022/05/12 12:08:03;;;;;;;4.37;1.23;;;22.70;60.00;;;;;;5068860;28;20454;-76
2022/05/12 12:10:35;;;;;;;4.10;1.30;;;22.70;60.10;;;;;;5064378;28;20553;-75
2022/05/12 12:13:07;;;;;;;4.43;1.47;;;22.70;59.90;;;;;;5065940;28;20489;-75
2022/05/12 12:16:07;;;;;;;4.77;1.23;;;22.80;60.10;;;;;;5067195;28;20557;-76
2022/05/12 12:19:01;;;;;;;6.67;1.30;;;22.80;60.00;;;;;;5067316;28;20528;-76
2022/05/12 12:21:45;;;;;;;5.50;1.70;;;22.80;60.00;;;;;;5066123;28;20442;-75
2022/05/12 12:24:38;;;;;;;6.23;1.47;;;22.80;60.10;;;;;;5066945;28;20484;-75
2022/05/12 12:27:29;;;;;;;3.57;1.30;;;22.80;60.00;;;;;;5055869;28;20504;-76
2022/05/12 12:30:22;;;;;;;4.53;1.20;;;22.70;60.10;;;;;;5078114;28;20813;-76
2022/05/12 12:33:10;;;;;;;4.17;1.10;;;22.80;60.30;;;;;;5063456;28;20479;-76
2022/05/12 12:36:01;;;;;;;8.30;1.30;;;22.90;60.40;;;;;;5057111;28;20495;-76
2022/05/12 12:38:58;;;;;;;4.37;1.07;;;22.90;60.40;;;;;;5067907;28;20882;-76
2022/05/12 12:41:36;;;;;;;7.10;1.60;;;23.00;60.50;;;;;;5067648;28;20871;-75
2022/05/12 12:44:09;;;;;;;4.97;1.50;;;23.00;60.30;;;;;;5057953;28;20481;-76
2022/05/12 12:46:50;;;;;;;3.70;1.30;;;23.00;60.30;;;;;;5081186;28;20458;-76
2022/05/12 12:49:22;;;;;;;4.90;1.37;;;23.00;60.50;;;;;;5067279;28;20455;-75
2022/05/12 12:51:57;;;;;;;5.80;1.40;;;23.10;60.60;;;;;;5068038;28;20449;-76
2022/05/12 12:57:24;;;;;;;5.80;1.43;;;23.20;60.40;;;;;;5067494;28;20905;-75
2022/05/12 12:59:55;;;;;;;6.07;1.83;;;23.20;60.20;;;;;;5064822;28;20466;-76
2022/05/12 13:02:30;;;;;;;6.93;1.03;;;23.20;60.20;;;;;;5078808;28;20493;-76
2022/05/12 13:05:07;;;;;;;8.70;1.33;;;23.20;60.10;;;;;;5066010;28;20453;-76
2022/05/12 13:07:37;;;;;;;3.50;1.20;;;23.20;60.10;;;;;;5066732;28;20523;-76
2022/05/12 13:10:09;;;;;;;4.20;1.37;;;23.30;60.30;;;;;;5066098;28;20473;-76
2022/05/12 13:12:37;;;;;;;3.90;1.13;;;23.40;60.30;;;;;;5067009;28;21141;-76
2022/05/12 13:15:16;;;;;;;5.83;1.50;;;23.40;60.20;;;;;;5067613;28;20460;-76
2022/05/12 13:17:51;;;;;;;3.77;1.37;;;23.50;60.10;;;;;;5063597;28;20547;-76
2022/05/12 13:20:42;;;;;;;3.50;1.00;;;23.50;59.90;;;;;;5062193;28;20458;-76
2022/05/12 13:23:16;;;;;;;7.57;1.30;;;23.50;59.80;;;;;;5064375;28;20535;-76
2022/05/12 13:25:44;;;;;;;4.07;1.10;;;23.50;59.70;;;;;;5082643;28;20453;-76
2022/05/12 13:28:17;;;;;;;6.50;1.57;;;23.50;59.70;;;;;;5067177;28;20964;-76
2022/05/12 13:30:47;;;;;;;4.90;1.13;;;23.50;59.40;;;;;;5081960;28;20477;-76
2022/05/12 13:33:22;;;;;;;4.80;1.30;;;23.50;59.20;;;;;;5065989;28;20823;-76
2022/05/12 13:35:59;;;;;;;4.40;1.30;;;23.50;59.00;;;;;;5064767;28;20461;-76